Time;durP1;ratioP1;P1;durP2;ratioP2;P2;SDS_P1;SDS_P2;PMS_P1;PMS_P2;Temp;Humidity;BMP_temperature;BMP_pressure;BME280_temperature;BME280_humidity;BME280_pressure;Samples;Min_cycle;Max_cycle;Signal;HPM_P1;HPM_P2
2022/08/02 00:00:53;;;;;;;;;;;;;;;;;;2115024;28;19932;-44
2022/08/02 00:01:56;;;;;;;;;;;;;;;;;;2114728;28;19970;-44
2022/08/02 00:02:57;;;;;;;;;;;;;;;;;;2114785;28;19980;-43
2022/08/02 00:03:57;;;;;;;;;;;;;;;;;;2114823;28;20505;-43
2022/08/02 00:04:58;;;;;;;;;;;;;;;;;;2115165;28;20012;-45
2022/08/02 00:05:59;;;;;;;;;;;;;;;;;;2114792;28;19975;-44
2022/08/02 00:07:00;;;;;;;;;;;;;;;;;;2114719;28;20326;-43
2022/08/02 00:08:01;;;;;;;;;;;;;;;;;;2115170;28;19928;-45
2022/08/02 00:09:02;;;;;;;;;;;;;;;;;;2114847;28;19962;-45
2022/08/02 00:10:02;;;;;;;;;;;;;;;;;;2114792;28;20308;-44
2022/08/02 00:11:03;;;;;;;;;;;;;;;;;;2113488;28;19928;-43
2022/08/02 00:12:04;;;;;;;;;;;;;;;;;;2106301;28;20018;-44
2022/08/02 00:13:05;;;;;;;;;;;;;;;;;;2106425;28;20147;-45
2022/08/02 00:14:06;;;;;;;;;;;;;;;;;;2106368;28;20011;-45
2022/08/02 00:15:07;;;;;;;;;;;;;;;;;;2106420;28;19924;-44
2022/08/02 00:16:08;;;;;;;;;;;;;;;;;;2106267;28;19924;-45
2022/08/02 00:17:09;;;;;;;;;;;;;;;;;;2106357;28;19956;-45
2022/08/02 00:18:09;;;;;;;;;;;;;;;;;;2106244;28;20035;-44
2022/08/02 00:19:10;;;;;;;;;;;;;;;;;;2106328;28;19938;-44
2022/08/02 00:20:11;;;;;;;;;;;;;;;;;;2106390;28;19960;-46
2022/08/02 00:21:12;;;;;;;;;;;;;;;;;;2106303;28;19966;-44
2022/08/02 00:22:13;;;;;;;;;;;;;;;;;;2106392;28;20327;-44
2022/08/02 00:23:14;;;;;;;;;;;;;;;;;;2106266;28;20312;-45
2022/08/02 00:24:15;;;;;;;;;;;;;;;;;;2106259;28;19924;-44
2022/08/02 00:25:29;;;;;;;;;;;;;;;;;;2106301;28;20397;-44
2022/08/02 00:26:30;;;;;;;;;;;;;;;;;;2106440;28;19924;-44
2022/08/02 00:27:31;;;;;;;;;;;;;;;;;;2106432;28;20294;-44
2022/08/02 00:28:32;;;;;;;;;;;;;;;;;;2106386;28;19969;-44
2022/08/02 00:29:33;;;;;;;;;;;;;;;;;;2105528;28;19967;-44
2022/08/02 00:30:34;;;;;;;;;;;;;;;;;;2106207;28;19924;-45
2022/08/02 00:31:35;;;;;;;;;;;;;;;;;;2106203;28;19945;-45
2022/08/02 00:32:36;;;;;;;;;;;;;;;;;;2106200;28;20381;-45
2022/08/02 00:33:36;;;;;;;;;;;;;;;;;;2106175;28;20371;-44
2022/08/02 00:34:57;;;;;;;;;;;;;;;;;;2106194;28;20388;-44
2022/08/02 00:35:58;;;;;;;;;;;;;;;;;;2106204;28;20061;-44
2022/08/02 00:36:59;;;;;;;;;;;;;;;;;;2106297;28;19974;-42
2022/08/02 00:38:00;;;;;;;;;;;;;;;;;;2106217;28;20018;-42
2022/08/02 00:39:01;;;;;;;;;;;;;;;;;;2106363;28;19928;-42
2022/08/02 00:40:02;;;;;;;;;;;;;;;;;;2106193;28;20373;-42
2022/08/02 00:41:03;;;;;;;;;;;;;;;;;;2106143;28;19924;-43
2022/08/02 00:42:03;;;;;;;;;;;;;;;;;;2107376;28;20023;-42
2022/08/02 00:43:05;;;;;;;;;;;;;;;;;;2114583;28;19951;-42
2022/08/02 00:44:06;;;;;;;;;;;;;;;;;;2114701;28;20003;-43
2022/08/02 00:45:07;;;;;;;;;;;;;;;;;;2114646;28;19923;-43
2022/08/02 00:46:08;;;;;;;;;;;;;;;;;;2114478;28;19931;-44
2022/08/02 00:47:09;;;;;;;;;;;;;;;;;;2114614;28;19963;-43
2022/08/02 00:48:10;;;;;;;;;;;;;;;;;;2114651;28;19923;-43
2022/08/02 00:49:11;;;;;;;;;;;;;;;;;;2114597;28;19973;-42
2022/08/02 00:50:11;;;;;;;;;;;;;;;;;;2114755;28;19935;-43
2022/08/02 00:51:12;;;;;;;;;;;;;;;;;;2114629;28;19933;-42
2022/08/02 00:52:13;;;;;;;;;;;;;;;;;;2114541;28;19923;-43
2022/08/02 00:53:15;;;;;;;;;;;;;;;;;;2114686;28;19924;-44
2022/08/02 00:54:15;;;;;;;;;;;;;;;;;;2114529;28;20369;-43
2022/08/02 00:55:16;;;;;;;;;;;;;;;;;;2114917;28;19924;-45
2022/08/02 00:56:17;;;;;;;;;;;;;;;;;;2114525;28;19976;-44
2022/08/02 00:57:19;;;;;;;;;;;;;;;;;;2114687;28;19924;-44
2022/08/02 00:58:20;;;;;;;;;;;;;;;;;;2114498;28;19931;-44
2022/08/02 00:59:21;;;;;;;;;;;;;;;;;;2114693;28;19927;-43
2022/08/02 01:00:22;;;;;;;;;;;;;;;;;;2114575;28;20077;-44
2022/08/02 01:01:37;;;;;;;;;;;;;;;;;;2114544;28;20342;-44
2022/08/02 01:02:37;;;;;;;;;;;;;;;;;;2114649;28;19923;-44
2022/08/02 01:03:38;;;;;;;;;;;;;;;;;;2114631;28;19930;-44
2022/08/02 01:04:39;;;;;;;;;;;;;;;;;;2114547;28;19955;-45
2022/08/02 01:05:40;;;;;;;;;;;;;;;;;;2114580;28;20300;-45
2022/08/02 01:07:02;;;;;;;;;;;;;;;;;;2114364;28;20330;-45
2022/08/02 01:08:03;;;;;;;;;;;;;;;;;;2114496;28;20361;-44
2022/08/02 01:09:04;;;;;;;;;;;;;;;;;;2114424;28;19934;-44
2022/08/02 01:10:05;;;;;;;;;;;;;;;;;;2114378;28;20041;-45
2022/08/02 01:11:06;;;;;;;;;;;;;;;;;;2113071;28;19923;-44
2022/08/02 01:12:06;;;;;;;;;;;;;;;;;;2105958;28;20058;-44
2022/08/02 01:13:08;;;;;;;;;;;;;;;;;;2106104;28;19928;-45
2022/08/02 01:14:08;;;;;;;;;;;;;;;;;;2105955;28;20456;-44
2022/08/02 01:15:09;;;;;;;;;;;;;;;;;;2106148;28;20003;-44
2022/08/02 01:16:10;;;;;;;;;;;;;;;;;;2105875;28;20369;-44
2022/08/02 01:17:11;;;;;;;;;;;;;;;;;;2106011;28;19935;-44
2022/08/02 01:18:13;;;;;;;;;;;;;;;;;;2105989;28;20007;-45
2022/08/02 01:19:14;;;;;;;;;;;;;;;;;;2106034;28;20077;-46
2022/08/02 01:20:16;;;;;;;;;;;;;;;;;;2106153;28;19924;-44
2022/08/02 01:21:17;;;;;;;;;;;;;;;;;;2106002;28;19931;-45
2022/08/02 01:22:18;;;;;;;;;;;;;;;;;;2105956;28;20012;-44
2022/08/02 01:23:19;;;;;;;;;;;;;;;;;;2105969;28;19931;-44
2022/08/02 01:24:20;;;;;;;;;;;;;;;;;;2106010;28;19925;-45
2022/08/02 01:25:21;;;;;;;;;;;;;;;;;;2105949;28;19931;-44
2022/08/02 01:26:21;;;;;;;;;;;;;;;;;;2105930;28;20373;-44
2022/08/02 01:27:22;;;;;;;;;;;;;;;;;;2105968;28;19938;-46
2022/08/02 01:28:23;;;;;;;;;;;;;;;;;;2105978;28;19924;-45
2022/08/02 01:29:24;;;;;;;;;;;;;;;;;;2105962;28;19930;-45
2022/08/02 01:30:25;;;;;;;;;;;;;;;;;;2105933;28;20296;-44
2022/08/02 01:31:26;;;;;;;;;;;;;;;;;;2106078;28;20020;-44
2022/08/02 01:32:27;;;;;;;;;;;;;;;;;;2105883;28;19978;-44
2022/08/02 01:33:28;;;;;;;;;;;;;;;;;;2106084;28;19924;-46
2022/08/02 01:34:29;;;;;;;;;;;;;;;;;;2105892;28;20007;-45
2022/08/02 01:35:30;;;;;;;;;;;;;;;;;;2106079;28;19931;-44
2022/08/02 01:36:48;;;;;;;;;;;;;;;;;;2105892;28;19947;-46
2022/08/02 01:37:49;;;;;;;;;;;;;;;;;;2105941;28;20050;-44
2022/08/02 01:38:50;;;;;;;;;;;;;;;;;;2111377;28;20318;-44
2022/08/02 01:39:50;;;;;;;;;;;;;;;;;;2114292;28;20388;-44
2022/08/02 01:40:51;;;;;;;;;;;;;;;;;;2114648;28;19927;-44
2022/08/02 01:41:52;;;;;;;;;;;;;;;;;;2115845;28;19924;-45
2022/08/02 01:42:58;;;;;;;;;;;;;;;;;;2115882;28;19924;-45
2022/08/02 01:43:59;;;;;;;;;;;;;;;;;;2115853;28;20011;-44
2022/08/02 01:45:00;;;;;;;;;;;;;;;;;;2115899;28;20313;-45
2022/08/02 01:46:01;;;;;;;;;;;;;;;;;;2115626;28;20030;-45
2022/08/02 01:47:02;;;;;;;;;;;;;;;;;;2115691;28;19974;-44
2022/08/02 01:48:02;;;;;;;;;;;;;;;;;;2115668;28;20201;-44
2022/08/02 01:49:03;;;;;;;;;;;;;;;;;;2115863;28;19959;-44
2022/08/02 01:50:04;;;;;;;;;;;;;;;;;;2115637;28;19927;-44
2022/08/02 01:51:05;;;;;;;;;;;;;;;;;;2115673;28;19928;-44
2022/08/02 01:52:21;;;;;;;;;;;;;;;;;;2115726;28;19924;-46
2022/08/02 01:53:24;;;;;;;;;;;;;;;;;;2115814;28;19949;-44
2022/08/02 01:54:24;;;;;;;;;;;;;;;;;;2115740;28;20007;-45
2022/08/02 01:55:25;;;;;;;;;;;;;;;;;;2115783;28;20064;-45
2022/08/02 01:56:33;;;;;;;;;;;;;;;;;;2115632;28;20327;-45
2022/08/02 01:57:34;;;;;;;;;;;;;;;;;;2115702;28;19923;-44
2022/08/02 01:58:35;;;;;;;;;;;;;;;;;;2115738;28;20056;-45
2022/08/02 01:59:36;;;;;;;;;;;;;;;;;;2115695;28;19969;-45
2022/08/02 02:00:38;;;;;;;;;;;;;;;;;;2115782;28;19928;-44
2022/08/02 02:01:39;;;;;;;;;;;;;;;;;;2115614;28;19961;-44
2022/08/02 02:02:40;;;;;;;;;;;;;;;;;;2115823;28;19924;-44
2022/08/02 02:03:41;;;;;;;;;;;;;;;;;;2115659;28;19967;-47
2022/08/02 02:04:42;;;;;;;;;;;;;;;;;;2115640;28;20327;-45
2022/08/02 02:05:43;;;;;;;;;;;;;;;;;;2115601;28;19923;-45
2022/08/02 02:06:44;;;;;;;;;;;;;;;;;;2115706;28;19959;-45
2022/08/02 02:07:45;;;;;;;;;;;;;;;;;;2115603;28;19923;-45
2022/08/02 02:08:45;;;;;;;;;;;;;;;;;;2115645;28;20011;-48
2022/08/02 02:09:46;;;;;;;;;;;;;;;;;;2115619;28;19930;-46
2022/08/02 02:10:50;;;;;;;;;;;;;;;;;;2115731;28;19949;-45
2022/08/02 02:11:51;;;;;;;;;;;;;;;;;;2107881;28;19953;-44
2022/08/02 02:13:12;;;;;;;;;;;;;;;;;;2107315;28;20425;-44
2022/08/02 02:14:12;;;;;;;;;;;;;;;;;;2107155;28;19974;-45
2022/08/02 02:15:14;;;;;;;;;;;;;;;;;;2107073;28;19993;-45
2022/08/02 02:16:14;;;;;;;;;;;;;;;;;;2107191;28;20022;-45
2022/08/02 02:17:15;;;;;;;;;;;;;;;;;;2106987;28;19928;-44
2022/08/02 02:18:37;;;;;;;;;;;;;;;;;;2107104;28;19970;-45
2022/08/02 02:19:38;;;;;;;;;;;;;;;;;;2107088;28;19927;-45
2022/08/02 02:20:39;;;;;;;;;;;;;;;;;;2107177;28;20005;-45
2022/08/02 02:21:40;;;;;;;;;;;;;;;;;;2107209;28;20359;-43
2022/08/02 02:22:41;;;;;;;;;;;;;;;;;;2107177;28;19934;-43
2022/08/02 02:23:42;;;;;;;;;;;;;;;;;;2107004;28;19931;-43
2022/08/02 02:24:43;;;;;;;;;;;;;;;;;;2107227;28;19924;-44
2022/08/02 02:25:44;;;;;;;;;;;;;;;;;;2107074;28;20003;-43
2022/08/02 02:26:47;;;;;;;;;;;;;;;;;;2107209;28;20377;-43
2022/08/02 02:27:52;;;;;;;;;;;;;;;;;;2107160;28;20007;-44
2022/08/02 02:28:53;;;;;;;;;;;;;;;;;;2107034;28;19928;-42
2022/08/02 02:29:54;;;;;;;;;;;;;;;;;;2107193;28;20007;-44
2022/08/02 02:30:55;;;;;;;;;;;;;;;;;;2107055;28;19968;-43
2022/08/02 02:31:56;;;;;;;;;;;;;;;;;;2107055;28;20266;-43
2022/08/02 02:32:56;;;;;;;;;;;;;;;;;;2107184;28;20031;-45
2022/08/02 02:33:57;;;;;;;;;;;;;;;;;;2107159;28;19924;-44
2022/08/02 02:34:58;;;;;;;;;;;;;;;;;;2111536;28;19930;-45
2022/08/02 02:35:59;;;;;;;;;;;;;;;;;;2115261;28;19923;-46
2022/08/02 02:37:00;;;;;;;;;;;;;;;;;;2115573;28;19923;-45
2022/08/02 02:38:01;;;;;;;;;;;;;;;;;;2115569;28;20202;-44
2022/08/02 02:39:02;;;;;;;;;;;;;;;;;;2115391;28;19927;-44
2022/08/02 02:40:03;;;;;;;;;;;;;;;;;;2115370;28;19924;-45
2022/08/02 02:41:04;;;;;;;;;;;;;;;;;;2115365;28;20683;-45
2022/08/02 02:42:05;;;;;;;;;;;;;;;;;;2115306;28;19931;-45
2022/08/02 02:43:05;;;;;;;;;;;;;;;;;;2115547;28;20007;-45
2022/08/02 02:44:06;;;;;;;;;;;;;;;;;;2115364;28;19931;-44
2022/08/02 02:45:07;;;;;;;;;;;;;;;;;;2115474;28;19997;-45
2022/08/02 02:46:08;;;;;;;;;;;;;;;;;;2115302;28;19961;-44
2022/08/02 02:47:09;;;;;;;;;;;;;;;;;;2115540;28;19931;-43
2022/08/02 02:48:10;;;;;;;;;;;;;;;;;;2115347;28;20036;-43
2022/08/02 02:49:11;;;;;;;;;;;;;;;;;;2115310;28;19928;-42
2022/08/02 02:50:12;;;;;;;;;;;;;;;;;;2115322;28;19927;-43
2022/08/02 02:51:13;;;;;;;;;;;;;;;;;;2115205;28;20014;-45
2022/08/02 02:52:14;;;;;;;;;;;;;;;;;;2115063;28;19923;-43
2022/08/02 02:53:15;;;;;;;;;;;;;;;;;;2114890;28;20026;-43
2022/08/02 02:54:16;;;;;;;;;;;;;;;;;;2115314;28;19924;-43
2022/08/02 02:55:31;;;;;;;;;;;;;;;;;;2115327;28;19939;-43
2022/08/02 02:56:32;;;;;;;;;;;;;;;;;;2115232;28;19928;-44
2022/08/02 02:57:33;;;;;;;;;;;;;;;;;;2115252;28;19924;-42
2022/08/02 02:58:34;;;;;;;;;;;;;;;;;;2115302;28;20549;-43
2022/08/02 02:59:35;;;;;;;;;;;;;;;;;;2115546;28;20227;-44
2022/08/02 03:01:55;;;;;;;;;;;;;;;;;;2115274;28;19931;-45
2022/08/02 03:02:58;;;;;;;;;;;;;;;;;;2115368;28;20368;-45
2022/08/02 03:03:59;;;;;;;;;;;;;;;;;;2115356;28;19924;-45
2022/08/02 03:05:01;;;;;;;;;;;;;;;;;;2115264;28;20395;-46
2022/08/02 03:06:02;;;;;;;;;;;;;;;;;;2115141;28;20455;-46
2022/08/02 03:07:03;;;;;;;;;;;;;;;;;;2115184;28;19977;-45
2022/08/02 03:08:04;;;;;;;;;;;;;;;;;;2115340;28;19924;-46
2022/08/02 03:09:05;;;;;;;;;;;;;;;;;;2115614;28;19930;-43
2022/08/02 03:10:06;;;;;;;;;;;;;;;;;;2115246;28;19986;-43
2022/08/02 03:11:06;;;;;;;;;;;;;;;;;;2113585;28;19931;-44
2022/08/02 03:12:07;;;;;;;;;;;;;;;;;;2106910;28;19974;-44
2022/08/02 03:13:08;;;;;;;;;;;;;;;;;;2106856;28;20380;-43
2022/08/02 03:14:09;;;;;;;;;;;;;;;;;;2106790;28;19924;-43
2022/08/02 03:15:10;;;;;;;;;;;;;;;;;;2106819;28;19931;-44
2022/08/02 03:16:11;;;;;;;;;;;;;;;;;;2106819;28;19928;-43
2022/08/02 03:17:12;;;;;;;;;;;;;;;;;;2106784;28;19928;-43
2022/08/02 03:18:13;;;;;;;;;;;;;;;;;;2106696;28;20398;-43
2022/08/02 03:19:14;;;;;;;;;;;;;;;;;;2106711;28;20388;-43
2022/08/02 03:20:15;;;;;;;;;;;;;;;;;;2106669;28;20294;-44
2022/08/02 03:21:16;;;;;;;;;;;;;;;;;;2106680;28;19935;-43
2022/08/02 03:22:16;;;;;;;;;;;;;;;;;;2106659;28;20274;-44
2022/08/02 03:23:17;;;;;;;;;;;;;;;;;;2106791;28;19991;-45
2022/08/02 03:24:19;;;;;;;;;;;;;;;;;;2106616;28;20290;-43
2022/08/02 03:25:28;;;;;;;;;;;;;;;;;;2106711;28;19924;-43
2022/08/02 03:26:29;;;;;;;;;;;;;;;;;;2106539;28;19924;-42
2022/08/02 03:27:30;;;;;;;;;;;;;;;;;;2106635;28;19982;-43
2022/08/02 03:28:31;;;;;;;;;;;;;;;;;;2106681;28;20365;-43
2022/08/02 03:29:32;;;;;;;;;;;;;;;;;;2106606;28;19932;-43
2022/08/02 03:30:34;;;;;;;;;;;;;;;;;;2106752;28;19924;-43
2022/08/02 03:31:35;;;;;;;;;;;;;;;;;;2114246;28;20373;-44
2022/08/02 03:32:36;;;;;;;;;;;;;;;;;;2114887;28;20270;-43
2022/08/02 03:33:37;;;;;;;;;;;;;;;;;;2115001;28;19930;-44
2022/08/02 03:34:38;;;;;;;;;;;;;;;;;;2115209;28;19924;-43
2022/08/02 03:35:39;;;;;;;;;;;;;;;;;;2115046;28;20399;-43
2022/08/02 03:36:40;;;;;;;;;;;;;;;;;;2115194;28;20553;-43
2022/08/02 03:37:41;;;;;;;;;;;;;;;;;;2115002;28;20434;-44
2022/08/02 03:38:42;;;;;;;;;;;;;;;;;;2115009;28;19927;-44
2022/08/02 03:39:43;;;;;;;;;;;;;;;;;;2115118;28;20010;-43
2022/08/02 03:40:50;;;;;;;;;;;;;;;;;;2115006;28;19924;-44
2022/08/02 03:41:50;;;;;;;;;;;;;;;;;;2114975;28;20006;-43
2022/08/02 03:42:51;;;;;;;;;;;;;;;;;;2114886;28;19928;-44
2022/08/02 03:43:52;;;;;;;;;;;;;;;;;;2115122;28;20010;-43
2022/08/02 03:44:53;;;;;;;;;;;;;;;;;;2115155;28;19955;-44
2022/08/02 03:45:54;;;;;;;;;;;;;;;;;;2115049;28;19965;-45
2022/08/02 03:46:55;;;;;;;;;;;;;;;;;;2114864;28;19957;-45
2022/08/02 03:47:56;;;;;;;;;;;;;;;;;;2115045;28;19971;-44
2022/08/02 03:48:59;;;;;;;;;;;;;;;;;;2114959;28;19924;-44
2022/08/02 03:50:00;;;;;;;;;;;;;;;;;;2114924;28;19971;-44
2022/08/02 03:51:01;;;;;;;;;;;;;;;;;;2114886;28;20022;-44
2022/08/02 03:52:02;;;;;;;;;;;;;;;;;;2114857;28;20022;-44
2022/08/02 03:53:03;;;;;;;;;;;;;;;;;;2114929;28;19967;-45
2022/08/02 03:54:03;;;;;;;;;;;;;;;;;;2114874;28;20030;-44
2022/08/02 03:55:04;;;;;;;;;;;;;;;;;;2115355;28;19930;-44
2022/08/02 03:56:05;;;;;;;;;;;;;;;;;;2114795;28;20305;-44
2022/08/02 03:57:06;;;;;;;;;;;;;;;;;;2115005;28;19924;-45
2022/08/02 03:58:07;;;;;;;;;;;;;;;;;;2114894;28;19972;-44
2022/08/02 03:59:08;;;;;;;;;;;;;;;;;;2114912;28;19924;-45
2022/08/02 04:00:09;;;;;;;;;;;;;;;;;;2114804;28;19930;-45
2022/08/02 04:01:10;;;;;;;;;;;;;;;;;;2114972;28;20022;-45
2022/08/02 04:02:11;;;;;;;;;;;;;;;;;;2114837;28;20312;-45
2022/08/02 04:03:12;;;;;;;;;;;;;;;;;;2114864;28;20243;-46
2022/08/02 04:04:13;;;;;;;;;;;;;;;;;;2114181;28;19924;-45
2022/08/02 04:05:14;;;;;;;;;;;;;;;;;;2114436;28;19960;-45
2022/08/02 04:06:15;;;;;;;;;;;;;;;;;;2114946;28;19935;-44
2022/08/02 04:07:16;;;;;;;;;;;;;;;;;;2114876;28;20008;-45
2022/08/02 04:08:37;;;;;;;;;;;;;;;;;;2115103;28;19928;-43
2022/08/02 04:09:39;;;;;;;;;;;;;;;;;;2114864;28;20335;-43
2022/08/02 04:11:59;;;;;;;;;;;;;;;;;;2106312;28;20289;-45
2022/08/02 04:13:00;;;;;;;;;;;;;;;;;;2106389;28;19960;-45
2022/08/02 04:14:01;;;;;;;;;;;;;;;;;;2106396;28;20010;-44
2022/08/02 04:15:01;;;;;;;;;;;;;;;;;;2106561;28;19928;-44
2022/08/02 04:16:03;;;;;;;;;;;;;;;;;;2106190;28;19928;-45
2022/08/02 04:17:04;;;;;;;;;;;;;;;;;;2106363;28;20450;-44
2022/08/02 04:18:04;;;;;;;;;;;;;;;;;;2106484;28;20007;-45
2022/08/02 04:19:05;;;;;;;;;;;;;;;;;;2106225;28;19925;-44
2022/08/02 04:20:06;;;;;;;;;;;;;;;;;;2106304;28;19960;-45
2022/08/02 04:21:07;;;;;;;;;;;;;;;;;;2106284;28;19931;-45
2022/08/02 04:22:08;;;;;;;;;;;;;;;;;;2106414;28;20011;-45
2022/08/02 04:23:09;;;;;;;;;;;;;;;;;;2106521;28;20182;-44
2022/08/02 04:24:10;;;;;;;;;;;;;;;;;;2106278;28;19924;-45
2022/08/02 04:25:11;;;;;;;;;;;;;;;;;;2106256;28;19955;-43
2022/08/02 04:26:17;;;;;;;;;;;;;;;;;;2106591;28;19924;-45
2022/08/02 04:27:18;;;;;;;;;;;;;;;;;;2109859;28;20325;-44
2022/08/02 04:28:39;;;;;;;;;;;;;;;;;;2114559;28;19931;-43
2022/08/02 04:29:40;;;;;;;;;;;;;;;;;;2114651;28;20193;-44
2022/08/02 04:30:45;;;;;;;;;;;;;;;;;;2115057;28;19924;-44
2022/08/02 04:31:46;;;;;;;;;;;;;;;;;;2114596;28;20487;-42
2022/08/02 04:32:47;;;;;;;;;;;;;;;;;;2114739;28;20014;-43
2022/08/02 04:33:48;;;;;;;;;;;;;;;;;;2114801;28;19962;-43
2022/08/02 04:34:48;;;;;;;;;;;;;;;;;;2114835;28;19931;-44
2022/08/02 04:36:12;;;;;;;;;;;;;;;;;;2114615;28;19923;-43
2022/08/02 04:37:13;;;;;;;;;;;;;;;;;;2114832;28;19930;-44
2022/08/02 04:38:14;;;;;;;;;;;;;;;;;;2114975;28;20003;-46
2022/08/02 04:39:15;;;;;;;;;;;;;;;;;;2114637;28;20018;-46
2022/08/02 04:40:16;;;;;;;;;;;;;;;;;;2114776;28;19924;-47
2022/08/02 04:41:17;;;;;;;;;;;;;;;;;;2114720;28;20023;-50
2022/08/02 04:42:18;;;;;;;;;;;;;;;;;;2114795;28;19931;-46
2022/08/02 04:43:18;;;;;;;;;;;;;;;;;;2114741;28;20266;-46
2022/08/02 04:44:20;;;;;;;;;;;;;;;;;;2114696;28;19923;-46
2022/08/02 04:45:20;;;;;;;;;;;;;;;;;;2114716;28;20023;-47
2022/08/02 04:46:21;;;;;;;;;;;;;;;;;;2114671;28;20039;-46
2022/08/02 04:47:22;;;;;;;;;;;;;;;;;;2114643;28;20023;-46
2022/08/02 04:48:43;;;;;;;;;;;;;;;;;;2114697;28;19924;-44
2022/08/02 04:49:44;;;;;;;;;;;;;;;;;;2114561;28;20018;-45
2022/08/02 04:50:45;;;;;;;;;;;;;;;;;;2114716;28;19969;-45
2022/08/02 04:51:46;;;;;;;;;;;;;;;;;;2114625;28;19927;-45
2022/08/02 04:52:47;;;;;;;;;;;;;;;;;;2114365;28;20238;-45
2022/08/02 04:53:48;;;;;;;;;;;;;;;;;;2114594;28;20282;-45
2022/08/02 04:54:50;;;;;;;;;;;;;;;;;;2114953;28;19931;-44
2022/08/02 04:55:51;;;;;;;;;;;;;;;;;;2114682;28;20011;-45
2022/08/02 04:56:51;;;;;;;;;;;;;;;;;;2114532;28;20132;-45
2022/08/02 04:57:56;;;;;;;;;;;;;;;;;;2114676;28;19928;-44
2022/08/02 04:58:57;;;;;;;;;;;;;;;;;;2114472;28;19931;-44
2022/08/02 04:59:58;;;;;;;;;;;;;;;;;;2114670;28;19931;-46
2022/08/02 05:00:59;;;;;;;;;;;;;;;;;;2114693;28;19931;-44
2022/08/02 05:02:00;;;;;;;;;;;;;;;;;;2114486;28;19924;-44
2022/08/02 05:03:01;;;;;;;;;;;;;;;;;;2114625;28;20288;-44
2022/08/02 05:04:02;;;;;;;;;;;;;;;;;;2114712;28;20060;-47
2022/08/02 05:05:02;;;;;;;;;;;;;;;;;;2114791;28;20343;-45
2022/08/02 05:06:08;;;;;;;;;;;;;;;;;;2114634;28;19923;-48
2022/08/02 05:07:19;;;;;;;;;;;;;;;;;;2114619;28;19930;-46
2022/08/02 05:08:20;;;;;;;;;;;;;;;;;;2114496;28;20304;-46
2022/08/02 05:09:21;;;;;;;;;;;;;;;;;;2114515;28;20014;-46
2022/08/02 05:10:22;;;;;;;;;;;;;;;;;;2114860;28;19963;-47
2022/08/02 05:11:23;;;;;;;;;;;;;;;;;;2110789;28;19924;-46
2022/08/02 05:12:35;;;;;;;;;;;;;;;;;;2106190;28;19963;-45
2022/08/02 05:13:36;;;;;;;;;;;;;;;;;;2106125;28;20011;-45
2022/08/02 05:14:57;;;;;;;;;;;;;;;;;;2106194;28;19935;-46
2022/08/02 05:16:00;;;;;;;;;;;;;;;;;;2106680;28;19931;-45
2022/08/02 05:17:01;;;;;;;;;;;;;;;;;;2107680;28;20014;-45
2022/08/02 05:18:03;;;;;;;;;;;;;;;;;;2107541;28;19928;-44
2022/08/02 05:19:03;;;;;;;;;;;;;;;;;;2107553;28;19924;-44
2022/08/02 05:20:04;;;;;;;;;;;;;;;;;;2107703;28;20010;-44
2022/08/02 05:21:05;;;;;;;;;;;;;;;;;;2107523;28;20205;-45
2022/08/02 05:22:06;;;;;;;;;;;;;;;;;;2107446;28;19931;-44
2022/08/02 05:23:07;;;;;;;;;;;;;;;;;;2107700;28;19924;-45
2022/08/02 05:24:08;;;;;;;;;;;;;;;;;;2115697;28;20018;-44
2022/08/02 05:25:09;;;;;;;;;;;;;;;;;;2115823;28;20303;-43
2022/08/02 05:26:10;;;;;;;;;;;;;;;;;;2115760;28;19931;-44
2022/08/02 05:27:11;;;;;;;;;;;;;;;;;;2116048;28;19974;-43
2022/08/02 05:28:17;;;;;;;;;;;;;;;;;;2116004;28;19973;-44
2022/08/02 05:29:17;;;;;;;;;;;;;;;;;;2115935;28;20023;-45
2022/08/02 05:30:19;;;;;;;;;;;;;;;;;;2115864;28;19949;-46
2022/08/02 05:31:20;;;;;;;;;;;;;;;;;;2116091;28;20315;-46
2022/08/02 05:32:21;;;;;;;;;;;;;;;;;;2115917;28;20439;-45
2022/08/02 05:33:24;;;;;;;;;;;;;;;;;;2115775;28;19924;-44
2022/08/02 05:34:25;;;;;;;;;;;;;;;;;;2116152;28;20010;-44
2022/08/02 05:35:25;;;;;;;;;;;;;;;;;;2115686;28;19924;-44
2022/08/02 05:36:26;;;;;;;;;;;;;;;;;;2115862;28;19924;-44
2022/08/02 05:37:27;;;;;;;;;;;;;;;;;;2115960;28;19927;-46
2022/08/02 05:38:31;;;;;;;;;;;;;;;;;;2115993;28;19966;-45
2022/08/02 05:39:31;;;;;;;;;;;;;;;;;;2115763;28;19949;-44
2022/08/02 05:40:32;;;;;;;;;;;;;;;;;;2115780;28;20455;-44
2022/08/02 05:41:33;;;;;;;;;;;;;;;;;;2116092;28;20295;-45
2022/08/02 05:42:34;;;;;;;;;;;;;;;;;;2116336;28;19931;-44
2022/08/02 05:43:35;;;;;;;;;;;;;;;;;;2115756;28;19966;-45
2022/08/02 05:44:36;;;;;;;;;;;;;;;;;;2116050;28;19935;-45
2022/08/02 05:45:37;;;;;;;;;;;;;;;;;;2115925;28;19924;-44
2022/08/02 05:46:38;;;;;;;;;;;;;;;;;;2116472;28;20399;-45
2022/08/02 05:47:39;;;;;;;;;;;;;;;;;;2115776;28;20060;-44
2022/08/02 05:48:40;;;;;;;;;;;;;;;;;;2116153;28;20018;-45
2022/08/02 05:49:41;;;;;;;;;;;;;;;;;;2115915;28;20006;-44
2022/08/02 05:50:42;;;;;;;;;;;;;;;;;;2115563;28;20018;-43
2022/08/02 05:51:43;;;;;;;;;;;;;;;;;;2115647;28;20373;-44
2022/08/02 05:52:45;;;;;;;;;;;;;;;;;;2115710;28;19924;-43
2022/08/02 05:53:45;;;;;;;;;;;;;;;;;;2115758;28;19924;-43
2022/08/02 05:54:47;;;;;;;;;;;;;;;;;;2116046;28;20288;-44
2022/08/02 05:55:48;;;;;;;;;;;;;;;;;;2115703;28;20006;-44
2022/08/02 05:56:49;;;;;;;;;;;;;;;;;;2115664;28;20408;-43
2022/08/02 05:57:50;;;;;;;;;;;;;;;;;;2115607;28;19924;-44
2022/08/02 05:58:51;;;;;;;;;;;;;;;;;;2115844;28;19924;-45
2022/08/02 05:59:52;;;;;;;;;;;;;;;;;;2115790;28;19977;-47
2022/08/02 06:00:53;;;;;;;;;;;;;;;;;;2115783;28;19928;-44
2022/08/02 06:01:54;;;;;;;;;;;;;;;;;;2115761;28;19939;-43
2022/08/02 06:02:55;;;;;;;;;;;;;;;;;;2115642;28;19924;-44
2022/08/02 06:03:56;;;;;;;;;;;;;;;;;;2115760;28;20380;-43
2022/08/02 06:04:57;;;;;;;;;;;;;;;;;;2115599;28;20011;-43
2022/08/02 06:05:58;;;;;;;;;;;;;;;;;;2115703;28;20015;-43
2022/08/02 06:06:59;;;;;;;;;;;;;;;;;;2115493;28;19930;-43
2022/08/02 06:07:59;;;;;;;;;;;;;;;;;;2115633;28;20399;-43
2022/08/02 06:09:02;;;;;;;;;;;;;;;;;;2115699;28;19924;-43
2022/08/02 06:10:03;;;;;;;;;;;;;;;;;;2115577;28;19923;-44
2022/08/02 06:11:04;;;;;;;;;;;;;;;;;;2114508;28;19970;-46
2022/08/02 06:12:05;;;;;;;;;;;;;;;;;;2107138;28;20317;-44
2022/08/02 06:13:07;;;;;;;;;;;;;;;;;;2107094;28;20348;-45
2022/08/02 06:14:08;;;;;;;;;;;;;;;;;;2107244;28;19924;-44
2022/08/02 06:15:09;;;;;;;;;;;;;;;;;;2107248;28;19924;-45
2022/08/02 06:16:10;;;;;;;;;;;;;;;;;;2107225;28;20002;-45
2022/08/02 06:17:14;;;;;;;;;;;;;;;;;;2107514;28;19931;-46
2022/08/02 06:18:16;;;;;;;;;;;;;;;;;;2107453;28;20015;-43
2022/08/02 06:19:17;;;;;;;;;;;;;;;;;;2107326;28;19931;-46
2022/08/02 06:20:18;;;;;;;;;;;;;;;;;;2114608;28;19923;-46
2022/08/02 06:21:20;;;;;;;;;;;;;;;;;;2115622;28;19962;-44
2022/08/02 06:22:42;;;;;;;;;;;;;;;;;;2116016;28;20010;-43
2022/08/02 06:23:44;;;;;;;;;;;;;;;;;;2115469;28;20388;-42
2022/08/02 06:24:58;;;;;;;;;;;;;;;;;;2115500;28;19923;-44
2022/08/02 06:25:59;;;;;;;;;;;;;;;;;;2115494;28;19963;-43
2022/08/02 06:27:00;;;;;;;;;;;;;;;;;;2115193;28;20377;-42
2022/08/02 06:28:01;;;;;;;;;;;;;;;;;;2114792;28;19924;-44
2022/08/02 06:29:02;;;;;;;;;;;;;;;;;;2115726;28;19931;-48
2022/08/02 06:30:03;;;;;;;;;;;;;;;;;;2115766;28;19927;-46
2022/08/02 06:31:03;;;;;;;;;;;;;;;;;;2115649;28;20027;-46
2022/08/02 06:32:05;;;;;;;;;;;;;;;;;;2115497;28;19924;-46
2022/08/02 06:33:06;;;;;;;;;;;;;;;;;;2115486;28;20123;-44
2022/08/02 06:34:07;;;;;;;;;;;;;;;;;;2115372;28;19924;-46
2022/08/02 06:35:09;;;;;;;;;;;;;;;;;;2115511;28;20281;-45
2022/08/02 06:36:10;;;;;;;;;;;;;;;;;;2115362;28;19940;-46
2022/08/02 06:37:11;;;;;;;;;;;;;;;;;;2115553;28;20016;-44
2022/08/02 06:38:12;;;;;;;;;;;;;;;;;;2115417;28;19981;-44
2022/08/02 06:39:13;;;;;;;;;;;;;;;;;;2115516;28;20321;-45
2022/08/02 06:40:14;;;;;;;;;;;;;;;;;;2115523;28;20346;-44
2022/08/02 06:41:15;;;;;;;;;;;;;;;;;;2115753;28;19963;-45
2022/08/02 06:42:16;;;;;;;;;;;;;;;;;;2115425;28;19924;-45
2022/08/02 06:43:16;;;;;;;;;;;;;;;;;;2115741;28;20065;-47
2022/08/02 06:44:17;;;;;;;;;;;;;;;;;;2115455;28;19969;-45
2022/08/02 06:45:38;;;;;;;;;;;;;;;;;;2115335;28;19924;-44
2022/08/02 06:46:39;;;;;;;;;;;;;;;;;;2115469;28;19934;-46
2022/08/02 06:48:00;;;;;;;;;;;;;;;;;;2115429;28;19930;-46
2022/08/02 06:49:01;;;;;;;;;;;;;;;;;;2115414;28;20018;-47
2022/08/02 06:50:02;;;;;;;;;;;;;;;;;;2115373;28;20018;-46
2022/08/02 06:51:03;;;;;;;;;;;;;;;;;;2115558;28;19927;-47
2022/08/02 06:52:04;;;;;;;;;;;;;;;;;;2115461;28;20369;-46
2022/08/02 06:53:05;;;;;;;;;;;;;;;;;;2115494;28;19935;-45
2022/08/02 06:54:06;;;;;;;;;;;;;;;;;;2115242;28;19924;-46
2022/08/02 06:55:07;;;;;;;;;;;;;;;;;;2115219;28;20377;-47
2022/08/02 06:56:08;;;;;;;;;;;;;;;;;;2115337;28;19966;-47
2022/08/02 06:57:09;;;;;;;;;;;;;;;;;;2115283;28;20049;-45
2022/08/02 06:58:10;;;;;;;;;;;;;;;;;;2115494;28;19923;-46
2022/08/02 06:59:11;;;;;;;;;;;;;;;;;;2115294;28;20072;-45
2022/08/02 07:00:12;;;;;;;;;;;;;;;;;;2115373;28;19928;-48
2022/08/02 07:01:13;;;;;;;;;;;;;;;;;;2115135;28;19927;-47
2022/08/02 07:02:14;;;;;;;;;;;;;;;;;;2115435;28;20158;-46
2022/08/02 07:03:15;;;;;;;;;;;;;;;;;;2115175;28;20254;-50
2022/08/02 07:04:16;;;;;;;;;;;;;;;;;;2115261;28;19931;-48
2022/08/02 07:05:20;;;;;;;;;;;;;;;;;;2115497;28;19999;-45
2022/08/02 07:06:21;;;;;;;;;;;;;;;;;;2115178;28;19927;-47